NWWW METAR and TAF weather

Enter ICAO airport designator
Station Type Date Time Source
NWWW METAR 2019/09/21 04:30 UTC NOAA

NWWW 210430Z AUTO 15024KT CAVOK 25/15 Q1019 BECMG 14017G27KT


Station Type Date Time Source
NWWW Decoded METAR 2019/09/21 04:30 UTC NOAA

La Tontouta Nlle-Caledonie , New Caledonia (NWWW) 22-01S 166-13E 14M
Sep 21, 2019 - 12:30 AM EDT / 2019.09.21 0430 UTC
Wind: from the SSE (150 degrees) at 28 MPH (24 KT):0
Visibility: greater than 7 mile(s):0
Temperature: 77 F (25 C)
Dew Point: 59 F (15 C)
Relative Humidity: 53%
Pressure (altimeter): 30.09 in. Hg (1019 hPa)
ob: NWWW 210430Z AUTO 15024KT CAVOK 25/15 Q1019 BECMG 14017G27KT
cycle: 4

Station Type Date Time Source
NWWW TAF 2019/09/20 18:29 UTC NOAA

TAF NWWW 201700Z 2018/2118 VRB02KT 9999 SCT060
BECMG 2022/2024 14018KT
TEMPO 2100/2106 14018G28KT

Example: see airport list